• Join FlightAware (Why Join?)
  • Login
  • US Flag 
11:42PM EDT


 

Airport Tracker/Info


-or-


 

Live Flight TrackerFlight Track Log ✈ N414CS ✈ 09-Jun-2013 ✈ KINT - KSFM

Flight Track Log - Related Links

Times and Time Zones

All times are in EDT time to prevent confusion due to time zone crossing. See the N414CS flight status page for this flight to view local times or setup timezone preferences in your user account.

Time Position Orientation Groundspeed Altitude Reporting Facility
EDT Latitude Longitude Course Direction KTS MPH feet Rate Location/Type
12:21PM 36.2239 -80.3064 30° Northeast 186 214 2,900  Level Washington Center
12:22PM 36.2539 -80.3339 324° Northwest 164 189 3,400 540 Climbing Washington Center
12:23PM 36.2883 -80.3644 324° Northwest 145 167 4,000 660 Climbing Washington Center
12:24PM 36.3200 -80.3561 12° North 120 138 4,700 600 Climbing Washington Center
12:25PM 36.4109 -80.0168 31° Northeast  Level FlightAware Approximate
12:25PM 36.3522 -80.3322 31° Northeast 121 139 5,200  Level Washington Center
12:26PM 36.4552 -79.9796 30° Northeast  Level FlightAware Approximate
12:26PM 36.3931 -80.2986 34° Northeast 154 177 5,900  Level Washington Center
12:27PM 36.4317 -80.2750 26° Northeast 154 177 6,400 540 Climbing Washington Center
12:28PM 36.4700 -80.2517 26° Northeast 149 171 7,000 540 Climbing Washington Center
12:29PM 36.5025 -80.2225 36° Northeast 149 171 7,600 540 Climbing Washington Center
12:30PM 36.5392 -80.1936 32° Northeast 149 171 8,100 540 Climbing Washington Center
12:31PM 36.5736 -80.1622 36° Northeast 149 171 8,700 660 Climbing Washington Center
12:32PM 36.6147 -80.1256 36° Northeast 149 171 9,400 600 Climbing Washington Center
12:33PM 36.6514 -80.0967 32° Northeast 149 171 9,900 540 Climbing Washington Center
12:34PM 36.6878 -80.0678 32° Northeast 149 171 10,500 540 Climbing Washington Center
12:35PM 36.7264 -80.0389 31° Northeast 149 171 11,000 240 Climbing Washington Center
12:36PM 36.7672 -80.0128 27° Northeast 159 183 11,000  Level Washington Center
12:37PM 36.8103 -79.9764 34° Northeast 170 196 11,000  Level Washington Center
12:38PM 36.8511 -79.9397 36° Northeast 175 201 11,000  Level Washington Center
12:39PM 36.8983 -79.9058 30° Northeast 175 201 11,000  Level Washington Center
12:40PM 36.9497 -79.8697 29° Northeast 182 209 11,000  Level Washington Center
12:41PM 36.9967 -79.8361 30° Northeast 187 215 11,000  Level Washington Center
12:42PM 37.0419 -79.7994 33° Northeast 187 215 11,000  Level Washington Center
12:43PM 37.0869 -79.7656 31° Northeast 187 215 11,000  Level Washington Center
12:44PM 37.1278 -79.7314 34° Northeast 187 215 11,000  Level Washington Center
12:45PM 37.1747 -79.6972 30° Northeast 187 215 11,100  Climbing Washington Center
12:46PM 37.2236 -79.6711 23° Northeast 187 215 11,000 -60 Descending Washington Center
12:47PM 37.2789 -79.6428 22° Northeast 181 208 11,000  Level Washington Center
12:48PM 37.3278 -79.6167 23° Northeast 181 208 11,100  Climbing Washington Center
12:49PM 37.3767 -79.5906 23° Northeast 181 208 11,100  Level Washington Center
12:50PM 37.4275 -79.5669 20° North 186 214 11,100  Level Washington Center
12:51PM 37.4783 -79.5408 22° Northeast 195 224 11,100 -60 Level Washington Center
12:52PM 37.5250 -79.5172 22° Northeast 195 224 11,000 -60 Descending Washington Center
12:53PM 37.5800 -79.4911 21° North 195 224 11,000  Level Washington Center
12:54PM 37.6247 -79.4672 23° Northeast 195 224 11,000  Level Washington Center
12:55PM 37.6797 -79.4411 21° North 195 224 11,000 60 Level Washington Center
12:56PM 37.7264 -79.4200 20° North 195 224 11,200 60 Climbing Washington Center
12:57PM 37.7750 -79.3989 19° North 195 224 11,200  Level Washington Center
12:58PM 37.8322 -79.3728 20° North 195 224 11,200 -60 Level Washington Center
12:59PM 37.8808 -79.3489 21° North 195 224 11,100  Descending Washington Center
01:00PM 37.9317 -79.3278 18° North 190 219 11,200  Climbing Washington Center
01:01PM 37.9844 -79.3067 17° North 190 219 11,200 -120 Level Washington Center
01:02PM 38.0308 -79.2878 18° North 190 219 11,000 -120 Descending Washington Center
01:03PM 38.0772 -79.2689 18° North 190 219 11,000  Level Washington Center
01:04PM 38.1300 -79.2506 15° North 190 219 11,000  Level Washington Center
01:05PM 38.1869 -79.2269 18° North 190 219 11,000  Level Washington Center
01:06PM 38.2378 -79.2056 18° North 190 219 11,000  Level Washington Center
01:07PM 38.2883 -79.1869 16° North 190 219 11,000  Level Washington Center
01:08PM 38.3411 -79.1681 16° North 190 219 11,000  Level Washington Center
01:09PM 38.3853 -79.1544 14° North 190 219 11,000  Level Washington Center
01:10PM 38.4339 -79.1356 17° North 190 219 11,000  Level Washington Center
01:11PM 38.4822 -79.1167 17° North 190 219 11,000  Level Washington Center
01:13PM 38.5878 -79.0764 17° North 190 219 11,000  Level Washington Center
01:14PM 38.6383 -79.0575 16° North 190 219 11,000  Level Washington Center
01:15PM 38.6869 -79.0306 23° Northeast 190 219 11,000  Level Washington Center
01:16PM 38.7339 -78.9956 30° Northeast 190 219 11,000  Level Washington Center
01:17PM 38.7767 -78.9603 33° Northeast 190 219 11,000  Level Washington Center
01:18PM 38.8233 -78.9278 28° Northeast 190 219 11,000  Level Washington Center
01:19PM 38.8700 -78.8953 28° Northeast 190 219 11,000  Level Washington Center
01:20PM 38.9192 -78.8600 29° Northeast 190 219 11,000  Level Washington Center
01:21PM 38.9678 -78.8275 27° Northeast 190 219 11,000  Level Washington Center
01:22PM 39.0167 -78.7922 29° Northeast 190 219 11,000  Level Washington Center
01:23PM 39.0656 -78.7622 25° Northeast 190 219 11,000  Level Washington Center
01:24PM 39.1142 -78.7297 27° Northeast 190 219 11,000  Level Washington Center
01:25PM 39.1611 -78.6969 28° Northeast 190 219 11,000  Level Washington Center
01:26PM 39.2097 -78.6642 28° Northeast 190 219 11,000  Level Washington Center
01:27PM 39.2608 -78.6286 28° Northeast 190 219 11,000  Level Washington Center
01:28PM 39.3094 -78.5931 30° Northeast 190 219 11,000  Level Washington Center
01:29PM 39.3583 -78.5603 27° Northeast 190 219 11,000  Level Washington Center
01:30PM 39.4031 -78.5164 37° Northeast 196 226 11,000  Level Washington Center
01:31PM 39.4442 -78.4617 46° Northeast 196 226 11,000  Level Washington Center
01:32PM 39.4828 -78.4067 48° Northeast 196 226 11,000  Level Washington Center
01:33PM 39.5217 -78.3517 47° Northeast 201 231 11,000  Level Washington Center
01:34PM 39.5603 -78.2994 46° Northeast 201 231 11,000  Level Washington Center
01:35PM 39.5969 -78.2442 49° Northeast 201 231 11,000  Level Washington Center
01:36PM 39.6336 -78.1889 49° Northeast 201 231 11,000  Level Washington Center
01:37PM 39.6722 -78.1364 46° Northeast 201 231 11,000  Level Washington Center
01:38PM 39.7097 -78.0794 49° Northeast 197 227 11,100  Climbing New York Center
01:39PM 39.7486 -78.0267 46° Northeast 197 227 11,100  Level New York Center
01:40PM 39.7853 -77.9711 49° Northeast 197 227 11,100 -60 Level New York Center
01:41PM 39.8242 -77.9156 48° Northeast 197 227 11,000 -60 Descending New York Center
01:42PM 39.8608 -77.8597 49° Northeast 197 227 11,000  Level New York Center
01:43PM 39.8994 -77.8069 46° Northeast 197 227 11,000  Level New York Center
01:44PM 39.9383 -77.7511 48° Northeast 202 232 11,000  Level New York Center
01:45PM 39.9769 -77.6956 48° Northeast 202 232 11,000  Level New York Center
01:46PM 40.0156 -77.6422 47° Northeast 202 232 11,000  Level New York Center
01:47PM 40.0586 -77.5814 47° Northeast 202 232 11,000  Level New York Center
01:48PM 40.0972 -77.5281 47° Northeast 202 232 11,000  Level New York Center
01:49PM 40.1358 -77.4722 48° Northeast 202 232 11,000  Level New York Center
01:50PM 40.1744 -77.4161 48° Northeast 202 232 11,000  Level New York Center
01:51PM 40.2131 -77.3600 48° Northeast 202 232 11,000  Level New York Center
01:52PM 40.2517 -77.3039 48° Northeast 202 232 11,000  Level New York Center
01:53PM 40.2900 -77.2503 47° Northeast 202 232 11,000  Level New York Center
01:54PM 40.3286 -77.1911 49° Northeast 202 232 11,000  Level New York Center
01:55PM 40.3669 -77.1375 47° Northeast 202 232 11,000  Level New York Center
01:56PM 40.4056 -77.0811 48° Northeast 202 232 11,000  Level New York Center
01:57PM 40.4419 -77.0244 50° Northeast 202 232 11,000  Level New York Center
01:58PM 40.4822 -76.9681 47° Northeast 202 232 11,000  Level New York Center
01:59PM 40.5228 -76.9117 47° Northeast 202 232 11,000  Level New York Center
02:00PM 40.5611 -76.8550 48° Northeast 202 232 11,000  Level New York Center
02:01PM 40.5994 -76.7981 48° Northeast 207 238 11,000  Level New York Center
02:02PM 40.6358 -76.7383 51° Northeast 202 232 11,000  Level New York Center
02:03PM 40.6736 -76.6897 44° Northeast 202 232 11,000  Level New York Center
02:04PM 40.7142 -76.6303 48° Northeast 202 232 11,000  Level New York Center
02:05PM 40.7547 -76.5706 48° Northeast 202 232 11,000  Level New York Center
02:06PM 40.7906 -76.5217 46° Northeast 202 232 11,000  Level New York Center
02:07PM 40.8286 -76.4644 49° Northeast 202 232 11,000  Level New York Center
02:08PM 40.8689 -76.4075 47° Northeast 202 232 11,000  Level New York Center
02:09PM 40.9050 -76.3500 50° Northeast 202 232 11,000  Level New York Center
02:10PM 40.9408 -76.2953 49° Northeast 197 227 11,000  Level New York Center
02:11PM 40.9764 -76.2458 46° Northeast 197 227 11,000 -60 Level New York Center
02:12PM 41.0100 -76.1936 50° Northeast 200 230 10,900  Descending New York Center
02:13PM 41.0483 -76.1333 50° Northeast 194 223 11,000  Climbing New York Center
02:14PM 41.0842 -76.0783 49° Northeast 194 223 11,000  Level New York Center
02:15PM 41.1156 -76.0286 50° Northeast 199 229 11,000  Level New York Center
02:16PM 41.1511 -75.9761 48° Northeast 199 229 11,000  Level New York Center
02:17PM 41.1911 -75.9186 47° Northeast 194 223 11,000  Level New York Center
02:18PM 41.2267 -75.8661 48° Northeast 194 223 11,000  Level New York Center
02:19PM 41.2556 -75.8242 47° Northeast 194 223 11,000 -60 Level New York Center
02:20PM 41.2978 -75.7611 48° Northeast 194 223 10,900  Descending New York Center
02:21PM 41.3311 -75.7111 48° Northeast 184 212 11,000  Climbing New York Center
02:22PM 41.3581 -75.6633 53° Northeast 184 212 11,000  Level New York Center
02:23PM 41.3917 -75.6075 51° Northeast 179 206 11,000  Level New York Center
02:24PM 41.4231 -75.5544 52° Northeast 179 206 11,000  Level New York Center
02:25PM 41.4586 -75.4989 49° Northeast 179 206 11,000  Level New York Center
02:26PM 41.4881 -75.4372 57° Northeast 179 206 11,000  Level New York Center
02:27PM 41.5153 -75.3783 58° Northeast 185 213 11,000  Level New York Center
02:29PM 41.5711 -75.2594 58° Northeast 189 217 11,000  Level Boston Center
02:30PM 41.5978 -75.1967 60° Northeast 189 217 11,000  Level Boston Center
02:31PM 41.6264 -75.1369 57° Northeast 189 217 11,000  Level Boston Center
02:32PM 41.6550 -75.0714 60° Northeast 194 223 11,000  Level Boston Center
02:33PM 41.6814 -75.0114 59° Northeast 194 223 11,000  Level Boston Center
02:34PM 41.7078 -74.9456 62° Northeast 194 223 11,000  Level Boston Center
02:35PM 41.7342 -74.8800 62° Northeast 199 229 11,000 -60 Level Boston Center
02:36PM 41.7606 -74.8142 62° Northeast 199 229 10,900 -300 Descending Boston Center
02:37PM 41.7850 -74.7456 64° Northeast 199 229 10,500 -420 Descending Boston Center
02:38PM 41.8175 -74.6797 56° Northeast 199 229 10,100 -420 Descending Boston Center
02:39PM 41.8481 -74.6139 58° Northeast 204 235 9,700 -420 Descending Boston Center
02:40PM 41.8742 -74.5536 60° Northeast 204 235 9,300 -300 Descending Boston Center
02:41PM 41.9047 -74.4792 61° Northeast 204 235 9,100 -180 Descending Boston Center
02:42PM 41.9308 -74.4186 60° Northeast 204 235 9,000 -60 Descending Boston Center
02:43PM 41.9572 -74.3469 64° Northeast 199 229 9,000 -60 Level Boston Center
02:44PM 41.9808 -74.2944 59° Northeast 194 223 8,900 -60 Descending Boston Center
02:44PM 42.0025 -74.2419 61° Northeast 186 214 8,900  Level Boston Center
02:45PM 42.0133 -74.2200 56° Northeast 186 214 8,900  Level Boston Center
02:46PM 42.0308 -74.1703 65° Northeast 186 214 8,900  Level Boston Center
02:47PM 42.0608 -74.1067 58° Northeast 180 207 9,000  Climbing Boston Center
02:48PM 42.0828 -74.0431 65° Northeast 189 217 9,000  Level Boston Center
02:49PM 42.1106 -73.9794 60° Northeast 189 217 9,000  Level Boston Center
02:50PM 42.1344 -73.9211 61° Northeast 189 217 9,000  Level Boston Center
02:51PM 42.1622 -73.8517 62° Northeast 189 217 9,000  Level Boston Center
02:52PM 42.1925 -73.7794 60° Northeast 194 223 9,000  Level Boston Center
02:53PM 42.2244 -73.7214 53° Northeast 192 221 9,000  Level Boston Center
02:54PM 42.2458 -73.6714 60° Northeast 184 212 9,000  Level Boston Center
02:55PM 42.2736 -73.6017 62° Northeast 193 222 9,000  Level Boston Center
02:56PM 42.2969 -73.5461 60° Northeast 193 222 9,000  Level Boston Center
02:57PM 42.3228 -73.4761 63° Northeast 188 216 9,000  Level Boston Center
02:58PM 42.3419 -73.4203 65° Northeast 188 216 9,000  Level Boston Center
02:59PM 42.3719 -73.3394 63° Northeast 191 220 9,000  Level Boston Center
03:00PM 42.3889 -73.2947 63° Northeast 188 216 9,000  Level Boston Center
03:01PM 42.4164 -73.2275 61° Northeast 195 224 9,000  Level Boston Center
03:02PM 42.4419 -73.1717 58° Northeast 195 224 9,000  Level Boston Center
03:03PM 42.4694 -73.1014 62° Northeast 190 219 9,000  Level Boston Center
03:04PM 42.4925 -73.0456 61° Northeast 185 213 9,000  Level Boston Center
03:05PM 42.5178 -72.9808 62° Northeast 179 206 9,000  Level Boston Center
03:06PM 42.5475 -72.9136 59° Northeast 179 206 9,000  Level Boston Center
03:07PM 42.5706 -72.8572 61° Northeast 179 206 9,000  Level Boston Center
03:08PM 42.5958 -72.7842 65° Northeast 179 206 9,000  Level Boston Center
03:09PM 42.6231 -72.7194 60° Northeast 179 206 9,000  Level Boston Center
03:10PM 42.6483 -72.6547 62° Northeast 179 206 9,000  Level Boston Center
03:11PM 42.6711 -72.5925 64° Northeast 179 206 9,000  Level Boston Center
03:12PM 42.6983 -72.5278 60° Northeast 179 206 9,000  Level Boston Center
03:13PM 42.7233 -72.4628 62° Northeast 179 206 9,000  Level Boston Center
03:14PM 42.7483 -72.4006 61° Northeast 179 206 9,000  Level Boston Center
03:15PM 42.7692 -72.3325 67° East 184 212 9,000  Level Boston Center
03:16PM 42.7942 -72.2817 56° Northeast 184 212 9,000  Level Boston Center
03:17PM 42.8233 -72.2022 63° Northeast 189 217 9,000  Level Boston Center
03:18PM 42.8439 -72.1400 66° East 194 223 9,000 -60 Level Boston Center
03:19PM 42.8728 -72.0661 62° Northeast 199 229 8,900 -60 Descending Boston Center
03:20PM 42.8978 -72.0064 60° Northeast 193 222 8,900  Level Boston Center
03:21PM 42.9267 -71.9383 60° Northeast 193 222 8,900  Level Boston Center
03:22PM 42.9492 -71.8814 62° Northeast 193 222 8,900 -480 Level Boston Center
03:23PM 42.9781 -71.8017 64° Northeast 198 228 8,000 -900 Descending Boston Center
03:24PM 42.9983 -71.7333 68° East 208 239 7,100 -840 Descending Boston Center
03:25PM 43.0314 -71.6589 59° Northeast 210 242 6,400 -600 Descending Boston Center
03:26PM 43.0581 -71.6019 57° Northeast 200 230 5,900 -600 Descending Boston Center
03:27PM 43.0867 -71.5303 61° Northeast 189 217 5,200 -540 Descending Boston Center
03:28PM 43.1050 -71.4703 67° East 184 212 4,900 -180 Descending Boston Center
03:29PM 43.1292 -71.4044 63° Northeast 179 206 4,900 60 Level Boston Center
03:29PM 43.1333 -71.3667 81° East 173 199 5,000  Climbing KA90
03:30PM 43.1667 -71.3167 48° Northeast 170 196 4,900 -300 Descending KA90
03:31PM 43.1833 -71.2667 65° Northeast 181 208 4,500 -360 Descending KA90
03:32PM 43.2000 -71.2000 71° East 183 211 4,200 -300 Descending KA90
03:33PM 43.2333 -71.1333 56° Northeast 181 208 3,900 -300 Descending KA90
03:34PM 43.2500 -71.0833 65° Northeast 178 205 3,600 -300 Descending KA90
03:35PM 43.2833 -71.0167 56° Northeast 174 200 3,300 -300 Descending KA90
03:36PM 43.3000 -70.9667 65° Northeast 171 197 3,000 -300 Descending KA90